sensor_id;sensor_type;location;lat;lon;timestamp;pressure;altitude;pressure_sealevel;temperature;humidity
58295;BME280;45705;55.592;37.460;2022-08-03T00:01:36;99184.25;;;19.73;57.51
58295;BME280;45705;55.592;37.460;2022-08-03T00:04:03;99181.88;;;19.72;57.67
58295;BME280;45705;55.592;37.460;2022-08-03T00:06:28;99186.13;;;19.69;57.71
58295;BME280;45705;55.592;37.460;2022-08-03T00:08:54;99191.59;;;19.65;57.96
58295;BME280;45705;55.592;37.460;2022-08-03T00:11:20;99190.31;;;19.59;58.06
58295;BME280;45705;55.592;37.460;2022-08-03T00:13:46;99192.75;;;19.64;58.10
58295;BME280;45705;55.592;37.460;2022-08-03T00:16:12;99191.97;;;19.64;58.01
58295;BME280;45705;55.592;37.460;2022-08-03T00:18:38;99193.91;;;19.63;58.19
58295;BME280;45705;55.592;37.460;2022-08-03T00:21:04;99179.28;;;19.59;57.93
58295;BME280;45705;55.592;37.460;2022-08-03T00:23:30;99194.72;;;19.64;58.26
58295;BME280;45705;55.592;37.460;2022-08-03T00:25:56;99199.81;;;19.62;58.47
58295;BME280;45705;55.592;37.460;2022-08-03T00:28:22;99190.63;;;19.54;58.96
58295;BME280;45705;55.592;37.460;2022-08-03T00:30:48;99188.78;;;19.62;58.31
58295;BME280;45705;55.592;37.460;2022-08-03T00:33:14;99187.25;;;19.64;58.31
58295;BME280;45705;55.592;37.460;2022-08-03T00:35:40;99184.44;;;19.61;58.35
58295;BME280;45705;55.592;37.460;2022-08-03T00:38:05;99185.63;;;19.63;58.23
58295;BME280;45705;55.592;37.460;2022-08-03T00:40:31;99185.56;;;19.60;58.88
58295;BME280;45705;55.592;37.460;2022-08-03T00:43:04;99184.00;;;19.59;59.08
58295;BME280;45705;55.592;37.460;2022-08-03T00:45:33;99189.50;;;19.59;58.99
58295;BME280;45705;55.592;37.460;2022-08-03T00:47:59;99184.50;;;19.64;58.78
58295;BME280;45705;55.592;37.460;2022-08-03T00:50:28;99179.19;;;19.56;59.09
58295;BME280;45705;55.592;37.460;2022-08-03T00:52:57;99188.66;;;19.55;59.32
58295;BME280;45705;55.592;37.460;2022-08-03T00:55:23;99184.63;;;19.48;59.69
58295;BME280;45705;55.592;37.460;2022-08-03T00:57:50;99185.63;;;19.40;60.03
58295;BME280;45705;55.592;37.460;2022-08-03T01:00:23;99181.22;;;19.36;59.89
58295;BME280;45705;55.592;37.460;2022-08-03T01:02:50;99174.94;;;19.35;60.41
58295;BME280;45705;55.592;37.460;2022-08-03T01:05:16;99172.38;;;19.26;60.58
58295;BME280;45705;55.592;37.460;2022-08-03T01:11:48;99180.97;;;19.21;60.92
58295;BME280;45705;55.592;37.460;2022-08-03T01:24:21;99182.38;;;19.12;61.86
58295;BME280;45705;55.592;37.460;2022-08-03T01:27:02;99179.22;;;19.13;61.66
58295;BME280;45705;55.592;37.460;2022-08-03T01:30:03;99179.84;;;19.03;61.95
58295;BME280;45705;55.592;37.460;2022-08-03T01:35:09;99182.22;;;19.04;62.19
58295;BME280;45705;55.592;37.460;2022-08-03T01:37:42;99183.75;;;19.02;62.14
58295;BME280;45705;55.592;37.460;2022-08-03T01:40:11;99174.31;;;19.03;62.38
58295;BME280;45705;55.592;37.460;2022-08-03T01:42:39;99186.00;;;18.96;62.42
58295;BME280;45705;55.592;37.460;2022-08-03T01:45:08;99182.16;;;19.01;62.64
58295;BME280;45705;55.592;37.460;2022-08-03T01:47:35;99178.28;;;19.05;62.59
58295;BME280;45705;55.592;37.460;2022-08-03T01:50:04;99183.75;;;19.02;62.61
58295;BME280;45705;55.592;37.460;2022-08-03T01:52:32;99182.22;;;19.04;62.72
58295;BME280;45705;55.592;37.460;2022-08-03T01:54:58;99190.00;;;18.99;62.87
58295;BME280;45705;55.592;37.460;2022-08-03T01:57:29;99189.13;;;18.95;63.02
58295;BME280;45705;55.592;37.460;2022-08-03T01:59:56;99192.31;;;18.97;63.23
58295;BME280;45705;55.592;37.460;2022-08-03T02:02:25;99186.44;;;18.98;63.50
58295;BME280;45705;55.592;37.460;2022-08-03T02:04:54;99185.19;;;18.96;63.57
58295;BME280;45705;55.592;37.460;2022-08-03T02:07:22;99194.72;;;18.98;63.61
58295;BME280;45705;55.592;37.460;2022-08-03T02:09:50;99197.97;;;19.04;63.53
58295;BME280;45705;55.592;37.460;2022-08-03T02:12:17;99190.84;;;19.03;63.49
58295;BME280;45705;55.592;37.460;2022-08-03T02:15:04;99199.91;;;19.03;63.16
58295;BME280;45705;55.592;37.460;2022-08-03T02:17:32;99196.50;;;19.10;63.38
58295;BME280;45705;55.592;37.460;2022-08-03T02:19:59;99196.19;;;19.15;63.19
58295;BME280;45705;55.592;37.460;2022-08-03T02:22:29;99197.44;;;19.18;63.20
58295;BME280;45705;55.592;37.460;2022-08-03T02:24:56;99196.91;;;19.32;62.58
58295;BME280;45705;55.592;37.460;2022-08-03T02:27:23;99190.19;;;19.29;62.92
58295;BME280;45705;55.592;37.460;2022-08-03T02:29:52;99193.88;;;19.37;62.62
58295;BME280;45705;55.592;37.460;2022-08-03T02:32:26;99195.00;;;19.36;62.66
58295;BME280;45705;55.592;37.460;2022-08-03T02:34:55;99193.41;;;19.35;62.78
58295;BME280;45705;55.592;37.460;2022-08-03T02:37:25;99201.09;;;19.45;62.47
58295;BME280;45705;55.592;37.460;2022-08-03T02:39:56;99201.16;;;19.48;62.18
58295;BME280;45705;55.592;37.460;2022-08-03T02:42:24;99199.19;;;19.49;62.42
58295;BME280;45705;55.592;37.460;2022-08-03T02:44:52;99210.28;;;19.53;62.51
58295;BME280;45705;55.592;37.460;2022-08-03T02:47:20;99200.34;;;19.48;62.38
58295;BME280;45705;55.592;37.460;2022-08-03T02:49:48;99197.84;;;19.62;61.98
58295;BME280;45705;55.592;37.460;2022-08-03T02:52:15;99203.97;;;19.72;61.93
58295;BME280;45705;55.592;37.460;2022-08-03T02:54:43;99206.38;;;19.77;61.53
58295;BME280;45705;55.592;37.460;2022-08-03T02:57:10;99207.56;;;19.76;61.80
58295;BME280;45705;55.592;37.460;2022-08-03T02:59:38;99200.94;;;19.80;61.48
58295;BME280;45705;55.592;37.460;2022-08-03T03:02:05;99208.06;;;19.81;62.01
58295;BME280;45705;55.592;37.460;2022-08-03T03:04:31;99209.28;;;19.84;61.48
58295;BME280;45705;55.592;37.460;2022-08-03T03:06:59;99218.28;;;19.81;61.80
58295;BME280;45705;55.592;37.460;2022-08-03T03:09:25;99209.81;;;19.93;61.51
58295;BME280;45705;55.592;37.460;2022-08-03T03:11:52;99211.81;;;19.96;61.47
58295;BME280;45705;55.592;37.460;2022-08-03T03:14:18;99207.69;;;20.10;61.32
58295;BME280;45705;55.592;37.460;2022-08-03T03:16:44;99204.88;;;20.06;61.27
58295;BME280;45705;55.592;37.460;2022-08-03T03:19:13;99208.91;;;20.39;60.77
58295;BME280;45705;55.592;37.460;2022-08-03T03:21:41;99208.44;;;20.60;60.45
58295;BME280;45705;55.592;37.460;2022-08-03T03:24:08;99202.28;;;20.43;60.50
58295;BME280;45705;55.592;37.460;2022-08-03T03:26:34;99202.78;;;20.53;60.72
58295;BME280;45705;55.592;37.460;2022-08-03T03:29:01;99218.72;;;20.59;60.75
58295;BME280;45705;55.592;37.460;2022-08-03T03:31:27;99213.25;;;20.63;60.75
58295;BME280;45705;55.592;37.460;2022-08-03T03:33:56;99219.50;;;20.60;61.05
58295;BME280;45705;55.592;37.460;2022-08-03T03:36:21;99218.75;;;20.63;60.98
58295;BME280;45705;55.592;37.460;2022-08-03T03:38:47;99219.19;;;20.99;59.20
58295;BME280;45705;55.592;37.460;2022-08-03T03:41:13;99223.53;;;21.34;58.10
58295;BME280;45705;55.592;37.460;2022-08-03T03:43:39;99216.19;;;22.41;54.92
58295;BME280;45705;55.592;37.460;2022-08-03T03:46:05;99217.88;;;23.98;51.22
58295;BME280;45705;55.592;37.460;2022-08-03T03:48:32;99215.19;;;25.23;47.22
58295;BME280;45705;55.592;37.460;2022-08-03T03:50:58;99217.31;;;25.64;45.09
58295;BME280;45705;55.592;37.460;2022-08-03T03:53:24;99217.34;;;26.54;43.04
58295;BME280;45705;55.592;37.460;2022-08-03T03:55:53;99223.50;;;27.07;41.68
58295;BME280;45705;55.592;37.460;2022-08-03T03:58:19;99218.78;;;27.62;39.88
58295;BME280;45705;55.592;37.460;2022-08-03T04:00:45;99215.47;;;27.13;41.51
58295;BME280;45705;55.592;37.460;2022-08-03T04:03:11;99223.03;;;27.70;40.42
58295;BME280;45705;55.592;37.460;2022-08-03T04:05:37;99220.84;;;27.58;40.35
58295;BME280;45705;55.592;37.460;2022-08-03T04:08:21;99230.47;;;27.80;39.18
58295;BME280;45705;55.592;37.460;2022-08-03T04:11:50;99227.34;;;28.25;38.34
58295;BME280;45705;55.592;37.460;2022-08-03T04:14:22;99235.97;;;28.11;38.63
58295;BME280;45705;55.592;37.460;2022-08-03T04:16:52;99237.56;;;28.12;38.53
58295;BME280;45705;55.592;37.460;2022-08-03T04:19:33;99234.06;;;28.28;38.25
58295;BME280;45705;55.592;37.460;2022-08-03T04:22:04;99234.81;;;28.76;37.47
58295;BME280;45705;55.592;37.460;2022-08-03T04:24:33;99229.78;;;28.87;37.41
58295;BME280;45705;55.592;37.460;2022-08-03T04:27:01;99244.84;;;28.93;36.97
58295;BME280;45705;55.592;37.460;2022-08-03T04:29:32;99242.38;;;28.55;37.73
58295;BME280;45705;55.592;37.460;2022-08-03T04:31:59;99234.38;;;28.97;37.39
58295;BME280;45705;55.592;37.460;2022-08-03T04:34:26;99232.50;;;29.11;37.30
58295;BME280;45705;55.592;37.460;2022-08-03T04:36:57;99234.94;;;29.09;37.69
58295;BME280;45705;55.592;37.460;2022-08-03T04:39:25;99237.75;;;29.98;35.63
58295;BME280;45705;55.592;37.460;2022-08-03T04:41:53;99233.72;;;30.15;34.91
58295;BME280;45705;55.592;37.460;2022-08-03T04:44:22;99237.78;;;29.61;35.72
58295;BME280;45705;55.592;37.460;2022-08-03T04:46:48;99239.66;;;29.12;37.18
58295;BME280;45705;55.592;37.460;2022-08-03T04:49:15;99229.91;;;29.56;36.11
58295;BME280;45705;55.592;37.460;2022-08-03T04:51:40;99227.50;;;30.53;34.29
58295;BME280;45705;55.592;37.460;2022-08-03T04:54:11;99227.50;;;31.25;33.45
58295;BME280;45705;55.592;37.460;2022-08-03T04:56:41;99225.34;;;30.28;34.24
58295;BME280;45705;55.592;37.460;2022-08-03T04:59:07;99221.44;;;31.26;33.21
58295;BME280;45705;55.592;37.460;2022-08-03T05:01:33;99224.56;;;31.03;33.29
58295;BME280;45705;55.592;37.460;2022-08-03T05:03:59;99231.97;;;29.72;35.60
58295;BME280;45705;55.592;37.460;2022-08-03T05:06:25;99224.91;;;30.30;35.15
58295;BME280;45705;55.592;37.460;2022-08-03T05:08:51;99226.13;;;30.45;35.25
58295;BME280;45705;55.592;37.460;2022-08-03T05:11:17;99235.69;;;29.13;36.60
58295;BME280;45705;55.592;37.460;2022-08-03T05:13:43;99232.22;;;29.25;37.29
58295;BME280;45705;55.592;37.460;2022-08-03T05:16:10;99220.34;;;30.52;35.43
58295;BME280;45705;55.592;37.460;2022-08-03T05:18:36;99230.91;;;30.61;34.67
58295;BME280;45705;55.592;37.460;2022-08-03T05:21:03;99232.72;;;31.52;33.64
58295;BME280;45705;55.592;37.460;2022-08-03T05:23:29;99239.13;;;30.97;33.09
58295;BME280;45705;55.592;37.460;2022-08-03T05:25:55;99239.03;;;30.72;33.69
58295;BME280;45705;55.592;37.460;2022-08-03T05:28:21;99234.72;;;30.38;35.11
58295;BME280;45705;55.592;37.460;2022-08-03T05:30:47;99244.13;;;31.19;34.32
58295;BME280;45705;55.592;37.460;2022-08-03T05:33:13;99235.59;;;31.10;34.47
58295;BME280;45705;55.592;37.460;2022-08-03T05:35:39;99244.66;;;30.72;34.29
58295;BME280;45705;55.592;37.460;2022-08-03T05:38:05;99235.84;;;31.54;33.18
58295;BME280;45705;55.592;37.460;2022-08-03T05:40:31;99239.75;;;31.44;33.64
58295;BME280;45705;55.592;37.460;2022-08-03T05:42:57;99242.38;;;32.02;32.97
58295;BME280;45705;55.592;37.460;2022-08-03T05:45:24;99241.97;;;33.05;30.92
58295;BME280;45705;55.592;37.460;2022-08-03T05:47:50;99244.34;;;32.27;32.26
58295;BME280;45705;55.592;37.460;2022-08-03T05:50:18;99243.25;;;32.47;32.41
58295;BME280;45705;55.592;37.460;2022-08-03T05:52:44;99244.28;;;32.75;31.77
58295;BME280;45705;55.592;37.460;2022-08-03T05:55:10;99239.63;;;33.03;31.26
58295;BME280;45705;55.592;37.460;2022-08-03T05:57:37;99240.81;;;32.93;31.69
58295;BME280;45705;55.592;37.460;2022-08-03T06:00:07;99235.94;;;31.89;32.93
58295;BME280;45705;55.592;37.460;2022-08-03T06:02:37;99236.94;;;32.21;32.05
58295;BME280;45705;55.592;37.460;2022-08-03T06:05:03;99237.84;;;32.17;31.91
58295;BME280;45705;55.592;37.460;2022-08-03T06:07:29;99242.38;;;32.02;32.32
58295;BME280;45705;55.592;37.460;2022-08-03T06:09:55;99235.56;;;33.26;29.53
58295;BME280;45705;55.592;37.460;2022-08-03T06:12:20;99229.78;;;33.30;30.24
58295;BME280;45705;55.592;37.460;2022-08-03T06:14:46;99239.06;;;33.40;29.41
58295;BME280;45705;55.592;37.460;2022-08-03T06:17:12;99239.00;;;33.30;28.46
58295;BME280;45705;55.592;37.460;2022-08-03T06:19:38;99229.81;;;33.70;28.24
58295;BME280;45705;55.592;37.460;2022-08-03T06:22:04;99239.44;;;33.51;28.77
58295;BME280;45705;55.592;37.460;2022-08-03T06:24:30;99236.22;;;33.71;28.60
58295;BME280;45705;55.592;37.460;2022-08-03T06:26:56;99237.13;;;33.27;29.07
58295;BME280;45705;55.592;37.460;2022-08-03T06:29:22;99243.16;;;33.48;29.18
58295;BME280;45705;55.592;37.460;2022-08-03T06:31:47;99239.44;;;33.91;28.96
58295;BME280;45705;55.592;37.460;2022-08-03T06:34:13;99240.69;;;34.00;27.93
58295;BME280;45705;55.592;37.460;2022-08-03T06:36:39;99239.53;;;34.28;26.99
58295;BME280;45705;55.592;37.460;2022-08-03T06:39:05;99247.75;;;33.95;28.22
58295;BME280;45705;55.592;37.460;2022-08-03T06:41:32;99251.63;;;33.48;29.07
58295;BME280;45705;55.592;37.460;2022-08-03T06:43:57;99253.31;;;32.35;29.40
58295;BME280;45705;55.592;37.460;2022-08-03T06:46:23;99247.31;;;31.85;28.99
58295;BME280;45705;55.592;37.460;2022-08-03T06:48:49;99252.63;;;31.03;30.51
58295;BME280;45705;55.592;37.460;2022-08-03T06:51:15;99251.59;;;31.90;29.67
58295;BME280;45705;55.592;37.460;2022-08-03T06:53:41;99248.28;;;32.87;28.12
58295;BME280;45705;55.592;37.460;2022-08-03T06:56:07;99261.78;;;33.14;28.00
58295;BME280;45705;55.592;37.460;2022-08-03T06:58:33;99236.69;;;33.38;27.67
58295;BME280;45705;55.592;37.460;2022-08-03T07:00:59;99247.44;;;33.93;27.11
58295;BME280;45705;55.592;37.460;2022-08-03T07:03:25;99259.53;;;33.09;28.08
58295;BME280;45705;55.592;37.460;2022-08-03T07:05:51;99255.50;;;33.41;27.55
58295;BME280;45705;55.592;37.460;2022-08-03T07:08:17;99258.31;;;32.53;28.80
58295;BME280;45705;55.592;37.460;2022-08-03T07:10:44;99257.72;;;32.71;28.54
58295;BME280;45705;55.592;37.460;2022-08-03T07:13:10;99250.38;;;33.18;27.54
58295;BME280;45705;55.592;37.460;2022-08-03T07:15:36;99256.22;;;32.44;29.03
58295;BME280;45705;55.592;37.460;2022-08-03T07:18:02;99258.69;;;31.82;29.66
58295;BME280;45705;55.592;37.460;2022-08-03T07:20:28;99265.22;;;31.11;29.92
58295;BME280;45705;55.592;37.460;2022-08-03T07:22:54;99262.66;;;30.87;30.68
58295;BME280;45705;55.592;37.460;2022-08-03T07:25:20;99263.97;;;30.53;31.13
58295;BME280;45705;55.592;37.460;2022-08-03T07:27:47;99270.59;;;30.92;31.28
58295;BME280;45705;55.592;37.460;2022-08-03T07:30:14;99269.16;;;30.84;30.62
58295;BME280;45705;55.592;37.460;2022-08-03T07:32:41;99273.06;;;31.71;29.54
58295;BME280;45705;55.592;37.460;2022-08-03T07:35:08;99255.19;;;32.03;30.17
58295;BME280;45705;55.592;37.460;2022-08-03T07:37:34;99256.41;;;33.29;28.65
58295;BME280;45705;55.592;37.460;2022-08-03T07:40:00;99269.75;;;32.71;28.27
58295;BME280;45705;55.592;37.460;2022-08-03T07:42:27;99259.31;;;31.98;29.56
58295;BME280;45705;55.592;37.460;2022-08-03T07:44:53;99262.72;;;30.71;30.97
58295;BME280;45705;55.592;37.460;2022-08-03T07:47:27;99271.56;;;29.91;33.30
58295;BME280;45705;55.592;37.460;2022-08-03T07:49:53;99277.53;;;30.09;32.24
58295;BME280;45705;55.592;37.460;2022-08-03T07:52:20;99272.97;;;30.32;32.07
58295;BME280;45705;55.592;37.460;2022-08-03T07:55:07;99288.63;;;29.43;32.80
58295;BME280;45705;55.592;37.460;2022-08-03T07:57:34;99284.34;;;28.99;34.71
58295;BME280;45705;55.592;37.460;2022-08-03T08:00:00;99287.69;;;28.90;34.00
58295;BME280;45705;55.592;37.460;2022-08-03T08:02:27;99280.59;;;28.65;34.78
58295;BME280;45705;55.592;37.460;2022-08-03T08:04:53;99287.84;;;29.03;34.61
58295;BME280;45705;55.592;37.460;2022-08-03T08:07:18;99286.91;;;28.70;35.35
58295;BME280;45705;55.592;37.460;2022-08-03T08:09:44;99297.28;;;28.22;35.61
58295;BME280;45705;55.592;37.460;2022-08-03T08:12:10;99290.19;;;28.17;36.69
58295;BME280;45705;55.592;37.460;2022-08-03T08:14:37;99307.00;;;27.90;36.22
58295;BME280;45705;55.592;37.460;2022-08-03T08:17:03;99300.50;;;27.66;36.85
58295;BME280;45705;55.592;37.460;2022-08-03T08:19:29;99301.88;;;27.81;36.96
58295;BME280;45705;55.592;37.460;2022-08-03T08:21:55;99291.78;;;27.33;37.46
58295;BME280;45705;55.592;37.460;2022-08-03T08:24:20;99304.78;;;27.13;38.23
58295;BME280;45705;55.592;37.460;2022-08-03T08:26:46;99304.63;;;27.58;37.52
58295;BME280;45705;55.592;37.460;2022-08-03T08:29:12;99303.34;;;27.62;37.96
58295;BME280;45705;55.592;37.460;2022-08-03T08:31:38;99301.41;;;27.86;37.82
58295;BME280;45705;55.592;37.460;2022-08-03T08:34:03;99293.03;;;27.86;37.77
58295;BME280;45705;55.592;37.460;2022-08-03T08:36:34;99285.28;;;27.71;37.49
58295;BME280;45705;55.592;37.460;2022-08-03T08:39:00;99286.97;;;27.64;38.28
58295;BME280;45705;55.592;37.460;2022-08-03T08:41:26;99294.09;;;27.69;38.33
58295;BME280;45705;55.592;37.460;2022-08-03T08:43:53;99306.53;;;27.92;37.39
58295;BME280;45705;55.592;37.460;2022-08-03T08:46:19;99296.28;;;27.81;37.09
58295;BME280;45705;55.592;37.460;2022-08-03T08:48:47;99286.16;;;28.18;37.25
58295;BME280;45705;55.592;37.460;2022-08-03T08:51:15;99297.38;;;27.91;37.84
58295;BME280;45705;55.592;37.460;2022-08-03T08:53:48;99297.72;;;27.66;37.25
58295;BME280;45705;55.592;37.460;2022-08-03T08:56:16;99289.34;;;27.66;37.85
58295;BME280;45705;55.592;37.460;2022-08-03T08:58:58;99292.31;;;27.82;37.18
58295;BME280;45705;55.592;37.460;2022-08-03T09:01:25;99288.00;;;27.74;37.80
58295;BME280;45705;55.592;37.460;2022-08-03T09:03:52;99296.00;;;28.03;37.69
58295;BME280;45705;55.592;37.460;2022-08-03T09:06:19;99294.78;;;27.77;38.02
58295;BME280;45705;55.592;37.460;2022-08-03T09:08:45;99304.53;;;27.65;36.48
58295;BME280;45705;55.592;37.460;2022-08-03T09:11:11;99297.31;;;27.67;36.74
58295;BME280;45705;55.592;37.460;2022-08-03T09:13:37;99298.91;;;27.68;37.08
58295;BME280;45705;55.592;37.460;2022-08-03T09:16:16;99302.09;;;27.67;37.00
58295;BME280;45705;55.592;37.460;2022-08-03T09:18:45;99302.56;;;27.93;37.16
58295;BME280;45705;55.592;37.460;2022-08-03T09:23:50;99301.88;;;27.81;36.98
58295;BME280;45705;55.592;37.460;2022-08-03T09:26:23;99302.94;;;27.64;36.09
58295;BME280;45705;55.592;37.460;2022-08-03T09:29:09;99308.38;;;27.75;35.97
58295;BME280;45705;55.592;37.460;2022-08-03T09:31:40;99313.16;;;27.74;37.05
58295;BME280;45705;55.592;37.460;2022-08-03T09:34:08;99301.28;;;27.66;36.49
58295;BME280;45705;55.592;37.460;2022-08-03T09:36:37;99306.59;;;28.15;36.18
58295;BME280;45705;55.592;37.460;2022-08-03T09:39:05;99308.91;;;27.93;35.97
58295;BME280;45705;55.592;37.460;2022-08-03T09:41:32;99305.28;;;27.69;36.20
58295;BME280;45705;55.592;37.460;2022-08-03T09:43:58;99306.66;;;27.84;36.25
58295;BME280;45705;55.592;37.460;2022-08-03T09:46:24;99301.81;;;27.88;35.56
58295;BME280;45705;55.592;37.460;2022-08-03T09:48:50;99295.38;;;27.92;35.57
58295;BME280;45705;55.592;37.460;2022-08-03T09:51:15;99291.25;;;28.00;35.66
58295;BME280;45705;55.592;37.460;2022-08-03T09:53:44;99292.84;;;28.01;35.95
58295;BME280;45705;55.592;37.460;2022-08-03T09:56:10;99287.28;;;27.97;35.62
58295;BME280;45705;55.592;37.460;2022-08-03T09:58:44;99298.31;;;28.08;36.35
58295;BME280;45705;55.592;37.460;2022-08-03T10:01:15;99298.06;;;27.99;36.12
58295;BME280;45705;55.592;37.460;2022-08-03T10:03:40;99302.31;;;28.07;35.43
58295;BME280;45705;55.592;37.460;2022-08-03T10:06:19;99294.81;;;27.73;37.63
58295;BME280;45705;55.592;37.460;2022-08-03T10:09:12;99303.47;;;27.82;36.96
58295;BME280;45705;55.592;37.460;2022-08-03T10:11:40;99300.84;;;27.99;36.50
58295;BME280;45705;55.592;37.460;2022-08-03T10:14:07;99296.13;;;27.96;36.48
58295;BME280;45705;55.592;37.460;2022-08-03T10:16:38;99294.91;;;28.20;36.56
58295;BME280;45705;55.592;37.460;2022-08-03T10:19:06;99303.91;;;28.08;36.26
58295;BME280;45705;55.592;37.460;2022-08-03T10:21:36;99304.63;;;28.12;36.69
58295;BME280;45705;55.592;37.460;2022-08-03T10:24:05;99294.53;;;28.18;36.68
58295;BME280;45705;55.592;37.460;2022-08-03T10:26:33;99311.69;;;28.20;36.32
58295;BME280;45705;55.592;37.460;2022-08-03T10:29:02;99310.84;;;28.00;36.20
58295;BME280;45705;55.592;37.460;2022-08-03T10:31:38;99303.38;;;27.89;36.32
58295;BME280;45705;55.592;37.460;2022-08-03T10:34:15;99302.09;;;27.98;37.04
58295;BME280;45705;55.592;37.460;2022-08-03T10:36:42;99300.44;;;28.00;37.23
58295;BME280;45705;55.592;37.460;2022-08-03T10:39:11;99306.09;;;27.66;37.78
58295;BME280;45705;55.592;37.460;2022-08-03T10:41:39;99315.38;;;27.86;37.04
58295;BME280;45705;55.592;37.460;2022-08-03T10:44:09;99310.19;;;27.88;36.52
58295;BME280;45705;55.592;37.460;2022-08-03T10:46:38;99308.56;;;27.91;36.46
58295;BME280;45705;55.592;37.460;2022-08-03T10:49:04;99309.13;;;27.79;37.01
58295;BME280;45705;55.592;37.460;2022-08-03T10:51:31;99311.81;;;27.59;37.29
58295;BME280;45705;55.592;37.460;2022-08-03T10:53:58;99317.38;;;27.59;37.73
58295;BME280;45705;55.592;37.460;2022-08-03T11:02:03;99309.47;;;27.54;37.94
58295;BME280;45705;55.592;37.460;2022-08-03T11:04:32;99314.53;;;27.32;36.84
58295;BME280;45705;55.592;37.460;2022-08-03T11:07:23;99320.19;;;27.28;37.19
58295;BME280;45705;55.592;37.460;2022-08-03T11:09:52;99323.16;;;27.44;37.27
58295;BME280;45705;55.592;37.460;2022-08-03T11:14:48;99316.53;;;27.31;37.70
58295;BME280;45705;55.592;37.460;2022-08-03T11:17:15;99316.91;;;27.33;38.03
58295;BME280;45705;55.592;37.460;2022-08-03T11:19:52;99317.38;;;27.59;37.96
58295;BME280;45705;55.592;37.460;2022-08-03T11:22:19;99314.19;;;27.57;38.56
58295;BME280;45705;55.592;37.460;2022-08-03T11:30:25;99317.03;;;27.22;38.38
58295;BME280;45705;55.592;37.460;2022-08-03T11:32:58;99307.53;;;27.47;37.88
58295;BME280;45705;55.592;37.460;2022-08-03T11:35:32;99317.38;;;27.59;38.18
58295;BME280;45705;55.592;37.460;2022-08-03T11:43:47;99310.69;;;27.80;37.25
58295;BME280;45705;55.592;37.460;2022-08-03T11:46:14;99305.03;;;27.83;37.01
58295;BME280;45705;55.592;37.460;2022-08-03T11:48:45;99311.53;;;27.77;36.87
58295;BME280;45705;55.592;37.460;2022-08-03T11:51:19;99303.47;;;27.82;36.73
58295;BME280;45705;55.592;37.460;2022-08-03T11:53:46;99313.50;;;28.07;35.99
58295;BME280;45705;55.592;37.460;2022-08-03T11:56:15;99315.56;;;28.26;35.62
58295;BME280;45705;55.592;37.460;2022-08-03T11:58:52;99319.28;;;28.43;35.40
58295;BME280;45705;55.592;37.460;2022-08-03T12:01:19;99319.19;;;28.27;36.26
58295;BME280;45705;55.592;37.460;2022-08-03T12:03:45;99309.31;;;28.19;35.66
58295;BME280;45705;55.592;37.460;2022-08-03T12:06:14;99308.31;;;28.33;35.32
58295;BME280;45705;55.592;37.460;2022-08-03T12:08:41;99301.72;;;28.43;35.84
58295;BME280;45705;55.592;37.460;2022-08-03T12:11:08;99302.50;;;27.96;35.76
58295;BME280;45705;55.592;37.460;2022-08-03T12:13:46;99300.50;;;28.20;35.69
58295;BME280;45705;55.592;37.460;2022-08-03T12:16:20;99299.63;;;28.27;35.97
58295;BME280;45705;55.592;37.460;2022-08-03T12:18:57;99304.31;;;27.79;36.78
58295;BME280;45705;55.592;37.460;2022-08-03T12:21:23;99293.69;;;27.98;36.63
58295;BME280;45705;55.592;37.460;2022-08-03T12:23:50;99303.84;;;28.12;37.21
58295;BME280;45705;55.592;37.460;2022-08-03T12:26:16;99298.69;;;28.34;35.72
58295;BME280;45705;55.592;37.460;2022-08-03T12:28:49;99298.22;;;28.39;35.64
58295;BME280;45705;55.592;37.460;2022-08-03T12:31:15;99296.50;;;28.45;36.18
58295;BME280;45705;55.592;37.460;2022-08-03T12:34:02;99286.59;;;28.64;35.67
58295;BME280;45705;55.592;37.460;2022-08-03T12:36:31;99292.50;;;28.70;35.85
58295;BME280;45705;55.592;37.460;2022-08-03T12:39:07;99294.94;;;28.67;36.15
58295;BME280;45705;55.592;37.460;2022-08-03T12:41:37;99295.28;;;28.70;35.93
58295;BME280;45705;55.592;37.460;2022-08-03T12:44:05;99295.78;;;28.64;36.45
58295;BME280;45705;55.592;37.460;2022-08-03T12:46:38;99301.50;;;28.57;36.80
58295;BME280;45705;55.592;37.460;2022-08-03T12:49:15;99303.19;;;28.27;35.75
58295;BME280;45705;55.592;37.460;2022-08-03T12:54:22;99308.06;;;28.47;35.23
58295;BME280;45705;55.592;37.460;2022-08-03T12:57:09;99303.66;;;28.22;34.42
58295;BME280;45705;55.592;37.460;2022-08-03T12:59:39;99304.84;;;28.25;34.53
58295;BME280;45705;55.592;37.460;2022-08-03T13:02:19;99307.63;;;28.25;34.62
58295;BME280;45705;55.592;37.460;2022-08-03T13:04:46;99315.47;;;28.34;34.08
58295;BME280;45705;55.592;37.460;2022-08-03T13:07:14;99309.16;;;28.30;34.00
58295;BME280;45705;55.592;37.460;2022-08-03T13:12:11;99295.72;;;28.21;36.21
58295;BME280;45705;55.592;37.460;2022-08-03T13:14:38;99311.81;;;28.13;36.40
58295;BME280;45705;55.592;37.460;2022-08-03T13:17:04;99311.63;;;28.24;37.10
58295;BME280;45705;55.592;37.460;2022-08-03T13:19:39;99310.28;;;28.08;36.47
58295;BME280;45705;55.592;37.460;2022-08-03T13:22:19;99305.00;;;28.14;36.57
58295;BME280;45705;55.592;37.460;2022-08-03T13:24:47;99308.41;;;28.02;37.62
58295;BME280;45705;55.592;37.460;2022-08-03T13:27:14;99307.78;;;28.14;37.47
58295;BME280;45705;55.592;37.460;2022-08-03T13:29:40;99300.75;;;28.06;36.94
58295;BME280;45705;55.592;37.460;2022-08-03T13:32:07;99296.13;;;28.43;35.84
58295;BME280;45705;55.592;37.460;2022-08-03T13:34:33;99297.22;;;28.49;35.82
58295;BME280;45705;55.592;37.460;2022-08-03T13:36:59;99291.59;;;28.53;35.88
58295;BME280;45705;55.592;37.460;2022-08-03T13:39:25;99298.22;;;28.82;35.25
58295;BME280;45705;55.592;37.460;2022-08-03T13:41:51;99298.03;;;28.93;35.37